Time;durP1;ratioP1;P1;durP2;ratioP2;P2;SDS_P1;SDS_P2;PMS_P1;PMS_P2;Temp;Humidity;BMP_temperature;BMP_pressure;BME280_temperature;BME280_humidity;BME280_pressure;Samples;Min_cycle;Max_cycle;Signal;HPM_P1;HPM_P2
2022/03/02 00:00:00;;;;;;;10.97;6.60;;;;;;;;;;5002429;28;20651;-76
2022/03/02 00:02:27;;;;;;;8.90;6.50;;;;;;;;;;4997981;28;20763;-76
2022/03/02 00:04:56;;;;;;;10.67;7.00;;;;;;;;;;5000293;28;20210;-76
2022/03/02 00:07:23;;;;;;;8.97;7.20;;;;;;;;;;5001856;28;20236;-76
2022/03/02 00:09:51;;;;;;;10.07;6.97;;;;;;;;;;4993308;28;20281;-76
2022/03/02 00:12:18;;;;;;;10.03;7.97;;;;;;;;;;5003057;28;20215;-76
2022/03/02 00:14:45;;;;;;;9.33;7.43;;;;;;;;;;5011373;28;20296;-76
2022/03/02 00:17:13;;;;;;;10.03;7.47;;;;;;;;;;5006660;28;20280;-76
2022/03/02 00:19:41;;;;;;;11.03;8.13;;;;;;;;;;5001917;28;20197;-76
2022/03/02 00:22:10;;;;;;;11.03;8.03;;;;;;;;;;4996315;28;20306;-76
2022/03/02 00:24:37;;;;;;;12.17;8.90;;;;;;;;;;5004502;28;20205;-76
2022/03/02 00:27:05;;;;;;;12.37;9.17;;;;;;;;;;5004474;28;20288;-77
2022/03/02 00:29:32;;;;;;;12.80;10.03;;;;;;;;;;5005065;28;20229;-76
2022/03/02 00:31:59;;;;;;;11.77;9.70;;;;;;;;;;5006475;28;20287;-76
2022/03/02 00:34:27;;;;;;;12.77;9.93;;;;;;;;;;5003507;28;20541;-76
2022/03/02 00:36:54;;;;;;;12.40;9.67;;;;;;;;;;5003888;28;20224;-76
2022/03/02 00:39:22;;;;;;;13.43;10.00;;;;;;;;;;5000979;28;20197;-76
2022/03/02 00:41:51;;;;;;;11.53;9.57;;;;;;;;;;4999922;28;20320;-76
2022/03/02 00:44:18;;;;;;;12.83;10.10;;;;;;;;;;5001575;28;20234;-76
2022/03/02 00:46:45;;;;;;;13.33;9.77;;;;;;;;;;5004233;28;20207;-76
2022/03/02 00:49:13;;;;;;;10.40;9.17;;;;;;;;;;5004537;28;20232;-76
2022/03/02 00:51:40;;;;;;;12.67;9.90;;;;;;;;;;5005753;28;20200;-76
2022/03/02 00:54:08;;;;;;;11.90;9.50;;;;;;;;;;4996584;28;20379;-76
2022/03/02 00:56:36;;;;;;;12.23;8.93;;;;;;;;;;4995975;28;20244;-76
2022/03/02 00:59:04;;;;;;;11.77;9.60;;;;;;;;;;5005655;28;20225;-76
2022/03/02 01:01:31;;;;;;;13.27;9.30;;;;;;;;;;5000540;28;20287;-76
2022/03/02 01:03:58;;;;;;;10.50;9.40;;;;;;;;;;5005730;28;20692;-76
2022/03/02 01:06:25;;;;;;;10.77;9.67;;;;;;;;;;5010013;28;20229;-76
2022/03/02 01:08:53;;;;;;;13.37;9.20;;;;;;;;;;5006136;28;20281;-76
2022/03/02 01:11:20;;;;;;;12.30;9.70;;;;;;;;;;5003908;28;20586;-76
2022/03/02 01:13:48;;;;;;;12.23;9.83;;;;;;;;;;5007080;28;20207;-76
2022/03/02 01:16:16;;;;;;;13.47;9.77;;;;;;;;;;5006710;28;20228;-76
2022/03/02 01:18:43;;;;;;;12.30;9.50;;;;;;;;;;5003933;28;20229;-76
2022/03/02 01:21:10;;;;;;;14.10;10.30;;;;;;;;;;5012483;28;20667;-76
2022/03/02 01:23:37;;;;;;;13.50;9.77;;;;;;;;;;5003751;28;20230;-76
2022/03/02 01:26:05;;;;;;;13.30;9.90;;;;;;;;;;5000312;28;20276;-76
2022/03/02 01:28:32;;;;;;;11.43;8.77;;;;;;;;;;4998095;28;20288;-76
2022/03/02 01:31:01;;;;;;;12.73;9.97;;;;;;;;;;5011260;28;20228;-76
2022/03/02 01:33:28;;;;;;;15.83;9.70;;;;;;;;;;5003167;28;20284;-76
2022/03/02 01:35:56;;;;;;;12.73;10.10;;;;;;;;;;5005936;28;20237;-76
2022/03/02 01:38:23;;;;;;;13.73;9.47;;;;;;;;;;5008815;28;20296;-76
2022/03/02 01:40:50;;;;;;;12.87;9.70;;;;;;;;;;5007395;28;20223;-76
2022/03/02 01:43:17;;;;;;;11.03;9.53;;;;;;;;;;5003399;28;20233;-76
2022/03/02 01:45:44;;;;;;;14.07;10.27;;;;;;;;;;5010614;28;20203;-76
2022/03/02 01:48:13;;;;;;;14.10;10.13;;;;;;;;;;4998911;28;20285;-76
2022/03/02 01:50:40;;;;;;;14.20;10.13;;;;;;;;;;4994671;28;20505;-76
2022/03/02 01:53:07;;;;;;;12.77;9.63;;;;;;;;;;4996972;28;20281;-76
2022/03/02 01:55:34;;;;;;;13.30;9.90;;;;;;;;;;4997344;28;20200;-76
2022/03/02 01:58:02;;;;;;;13.07;10.30;;;;;;;;;;5012769;28;20297;-76
2022/03/02 02:00:29;;;;;;;14.83;10.20;;;;;;;;;;5014072;28;20323;-76
2022/03/02 02:02:56;;;;;;;12.43;10.17;;;;;;;;;;4995654;28;20223;-76
2022/03/02 02:05:25;;;;;;;13.40;10.53;;;;;;;;;;5005883;28;20205;-76
2022/03/02 02:07:52;;;;;;;16.83;10.33;;;;;;;;;;5010405;28;20228;-76
2022/03/02 02:10:20;;;;;;;12.77;10.33;;;;;;;;;;5009429;28;20212;-76
2022/03/02 02:12:47;;;;;;;17.07;11.43;;;;;;;;;;5004058;28;20611;-76
2022/03/02 02:15:15;;;;;;;18.93;11.43;;;;;;;;;;5003501;28;20236;-76
2022/03/02 02:17:43;;;;;;;16.60;10.93;;;;;;;;;;5000779;28;20736;-76
2022/03/02 02:20:11;;;;;;;15.87;10.73;;;;;;;;;;5009044;28;20690;-76
2022/03/02 02:22:40;;;;;;;15.07;11.47;;;;;;;;;;4997859;28;20309;-76
2022/03/02 02:25:08;;;;;;;13.23;10.27;;;;;;;;;;5014044;28;20228;-76
2022/03/02 02:27:35;;;;;;;14.03;11.20;;;;;;;;;;5013017;28;20298;-76
2022/03/02 02:30:03;;;;;;;15.73;11.53;;;;;;;;;;5014489;28;20376;-76
2022/03/02 02:32:31;;;;;;;14.87;11.50;;;;;;;;;;5009134;28;20236;-76
2022/03/02 02:34:58;;;;;;;14.50;11.90;;;;;;;;;;5002058;28;20229;-76
2022/03/02 02:37:26;;;;;;;15.27;11.93;;;;;;;;;;4997951;28;20312;-76
2022/03/02 02:39:58;;;;;;;16.37;11.73;;;;;;;;;;5001443;28;20207;-76
2022/03/02 02:42:26;;;;;;;15.77;11.37;;;;;;;;;;4995840;28;20256;-76
2022/03/02 02:44:54;;;;;;;16.93;12.10;;;;;;;;;;5009905;28;20263;-76
2022/03/02 02:47:21;;;;;;;15.70;11.30;;;;;;;;;;5000822;28;20230;-77
2022/03/02 02:49:48;;;;;;;15.80;11.73;;;;;;;;;;5012432;28;20290;-76
2022/03/02 02:52:16;;;;;;;15.17;12.00;;;;;;;;;;5000847;28;20276;-76
2022/03/02 02:54:44;;;;;;;15.53;11.73;;;;;;;;;;4996688;28;20262;-76
2022/03/02 02:57:12;;;;;;;14.73;11.50;;;;;;;;;;5005322;28;20756;-76
2022/03/02 02:59:39;;;;;;;17.30;12.37;;;;;;;;;;5004272;28;20328;-77
2022/03/02 03:02:07;;;;;;;16.53;12.27;;;;;;;;;;5012592;28;20314;-76
2022/03/02 03:04:34;;;;;;;15.80;12.20;;;;;;;;;;5004409;28;20289;-76
2022/03/02 03:07:01;;;;;;;17.63;12.00;;;;;;;;;;5005121;28;20228;-76
2022/03/02 03:09:28;;;;;;;15.67;11.67;;;;;;;;;;5000247;28;20660;-76
2022/03/02 03:11:55;;;;;;;17.97;11.87;;;;;;;;;;4995812;28;20201;-76
2022/03/02 03:14:24;;;;;;;14.37;11.97;;;;;;;;;;5007675;28;20228;-77
2022/03/02 03:16:51;;;;;;;17.20;12.03;;;;;;;;;;4993069;28;20288;-76
2022/03/02 03:19:18;;;;;;;16.93;12.13;;;;;;;;;;5001359;28;20240;-76
2022/03/02 03:21:46;;;;;;;16.27;12.20;;;;;;;;;;5010295;28;20312;-76
2022/03/02 03:24:13;;;;;;;15.70;11.63;;;;;;;;;;5011914;28;20233;-76
2022/03/02 03:26:40;;;;;;;16.83;11.57;;;;;;;;;;5010732;28;20213;-76
2022/03/02 03:29:07;;;;;;;16.07;12.13;;;;;;;;;;5005301;28;20287;-76
2022/03/02 03:31:36;;;;;;;14.50;12.03;;;;;;;;;;5007981;28;20708;-76
2022/03/02 03:34:03;;;;;;;14.97;11.40;;;;;;;;;;5007676;28;20242;-76
2022/03/02 03:36:30;;;;;;;15.97;12.10;;;;;;;;;;4992077;28;20285;-76
2022/03/02 03:38:57;;;;;;;19.90;12.87;;;;;;;;;;4993927;28;20195;-76
2022/03/02 03:41:25;;;;;;;15.03;11.90;;;;;;;;;;5009803;28;20205;-76
2022/03/02 03:43:52;;;;;;;14.73;11.70;;;;;;;;;;5000695;28;20649;-76
2022/03/02 03:46:19;;;;;;;14.90;11.43;;;;;;;;;;4996194;28;20267;-76
2022/03/02 03:48:48;;;;;;;16.73;12.13;;;;;;;;;;4992996;28;20308;-76
2022/03/02 03:51:15;;;;;;;18.10;11.73;;;;;;;;;;4996726;28;20303;-76
2022/03/02 03:53:42;;;;;;;15.60;11.43;;;;;;;;;;5008094;28;20236;-76
2022/03/02 03:56:09;;;;;;;15.07;11.60;;;;;;;;;;4999885;28;20308;-76
2022/03/02 03:58:36;;;;;;;14.37;11.67;;;;;;;;;;4999610;28;20316;-76
2022/03/02 04:01:04;;;;;;;14.40;11.30;;;;;;;;;;4993085;28;20286;-76
2022/03/02 04:03:31;;;;;;;16.03;11.53;;;;;;;;;;5008811;28;20809;-75
2022/03/02 04:05:59;;;;;;;15.50;11.57;;;;;;;;;;5003834;28;20201;-76
2022/03/02 04:08:27;;;;;;;15.17;11.63;;;;;;;;;;5008298;28;20288;-76
2022/03/02 04:10:54;;;;;;;16.60;11.90;;;;;;;;;;5010175;28;20316;-76
2022/03/02 04:13:21;;;;;;;14.67;11.30;;;;;;;;;;5002983;28;20233;-76
2022/03/02 04:15:48;;;;;;;14.27;11.67;;;;;;;;;;5003277;28;20237;-76
2022/03/02 04:18:16;;;;;;;15.00;12.17;;;;;;;;;;5006641;28;20640;-76
2022/03/02 04:20:43;;;;;;;16.33;11.20;;;;;;;;;;4999541;28;20244;-76
2022/03/02 04:23:12;;;;;;;17.37;11.93;;;;;;;;;;5004389;28;20459;-76
2022/03/02 04:25:39;;;;;;;17.80;12.33;;;;;;;;;;4997714;28;20229;-76
2022/03/02 04:28:07;;;;;;;16.00;12.00;;;;;;;;;;5008988;28;20205;-75
2022/03/02 04:30:34;;;;;;;17.93;11.70;;;;;;;;;;5003446;28;20207;-76
2022/03/02 04:33:02;;;;;;;15.70;11.87;;;;;;;;;;4995520;28;20225;-76
2022/03/02 04:35:29;;;;;;;14.63;11.33;;;;;;;;;;5011433;28;20696;-76
2022/03/02 04:37:56;;;;;;;19.27;12.20;;;;;;;;;;4993199;28;20198;-76
2022/03/02 04:40:25;;;;;;;15.13;11.80;;;;;;;;;;4996514;28;20201;-76
2022/03/02 04:42:54;;;;;;;16.53;11.93;;;;;;;;;;4994736;28;20264;-76
2022/03/02 04:45:25;;;;;;;15.33;11.10;;;;;;;;;;4999909;28;20204;-76
2022/03/02 04:47:52;;;;;;;17.97;11.80;;;;;;;;;;4992580;28;20209;-75
2022/03/02 04:50:20;;;;;;;16.83;11.93;;;;;;;;;;5002104;28;20237;-76
2022/03/02 04:52:47;;;;;;;17.03;12.00;;;;;;;;;;4997104;28;20202;-76
2022/03/02 04:55:16;;;;;;;15.77;11.23;;;;;;;;;;5000209;28;20285;-76
2022/03/02 04:57:45;;;;;;;16.57;12.33;;;;;;;;;;5004518;28;20196;-76
2022/03/02 05:00:14;;;;;;;16.70;12.53;;;;;;;;;;4991986;28;20267;-76
2022/03/02 05:02:41;;;;;;;16.93;12.17;;;;;;;;;;5000654;28;20320;-76
2022/03/02 05:05:10;;;;;;;22.43;12.43;;;;;;;;;;5010718;28;20239;-77
2022/03/02 05:07:39;;;;;;;18.07;11.73;;;;;;;;;;4992179;28;20649;-76
2022/03/02 05:10:07;;;;;;;17.80;11.40;;;;;;;;;;5003924;28;20232;-77
2022/03/02 05:12:34;;;;;;;18.70;11.60;;;;;;;;;;5008627;28;20276;-76
2022/03/02 05:15:03;;;;;;;15.90;12.13;;;;;;;;;;4996816;28;20206;-75
2022/03/02 05:17:31;;;;;;;17.83;12.43;;;;;;;;;;5000028;28;20201;-76
2022/03/02 05:19:58;;;;;;;17.23;12.03;;;;;;;;;;4999688;28;20749;-76
2022/03/02 05:22:25;;;;;;;17.80;12.40;;;;;;;;;;5007404;28;20776;-75
2022/03/02 05:24:52;;;;;;;16.97;11.93;;;;;;;;;;4993592;28;20252;-76
2022/03/02 05:27:20;;;;;;;16.87;11.63;;;;;;;;;;5008017;28;20293;-76
2022/03/02 05:29:47;;;;;;;15.13;11.47;;;;;;;;;;5004265;28;20230;-76
2022/03/02 05:32:15;;;;;;;16.37;11.63;;;;;;;;;;5011592;28;20284;-76
2022/03/02 05:34:42;;;;;;;16.53;11.53;;;;;;;;;;5005402;28;20240;-76
2022/03/02 05:37:10;;;;;;;15.20;11.20;;;;;;;;;;5003333;28;20229;-76
2022/03/02 05:39:37;;;;;;;15.77;12.07;;;;;;;;;;4995944;28;20283;-76
2022/03/02 05:42:04;;;;;;;15.67;11.70;;;;;;;;;;5006559;28;20257;-75
2022/03/02 05:44:31;;;;;;;17.33;11.13;;;;;;;;;;5009100;28;20240;-76
2022/03/02 05:46:59;;;;;;;19.10;12.73;;;;;;;;;;5012651;28;20304;-75
2022/03/02 05:49:27;;;;;;;17.03;11.37;;;;;;;;;;5013287;28;20295;-75
2022/03/02 05:51:55;;;;;;;16.13;11.70;;;;;;;;;;5006497;28;20205;-76
2022/03/02 05:54:22;;;;;;;15.47;11.80;;;;;;;;;;5013912;28;20295;-76
2022/03/02 05:56:49;;;;;;;16.43;11.20;;;;;;;;;;5008994;28;20280;-76
2022/03/02 05:59:17;;;;;;;16.77;11.40;;;;;;;;;;5009522;28;20361;-76
2022/03/02 06:01:46;;;;;;;18.33;12.00;;;;;;;;;;5012435;28;20661;-77
2022/03/02 06:04:13;;;;;;;15.93;11.37;;;;;;;;;;5001942;28;20216;-78
2022/03/02 06:06:42;;;;;;;16.17;11.67;;;;;;;;;;5007210;28;20291;-77
2022/03/02 06:09:10;;;;;;;18.00;11.23;;;;;;;;;;5001620;28;20756;-77
2022/03/02 06:11:38;;;;;;;17.00;11.57;;;;;;;;;;5014008;28;20287;-77
2022/03/02 06:14:05;;;;;;;14.83;10.73;;;;;;;;;;5013318;28;20279;-77
2022/03/02 06:16:33;;;;;;;14.03;10.97;;;;;;;;;;5014150;28;20288;-77
2022/03/02 06:19:02;;;;;;;17.07;11.33;;;;;;;;;;5008261;28;20225;-77
2022/03/02 06:21:32;;;;;;;16.27;11.60;;;;;;;;;;5004815;28;20201;-77
2022/03/02 06:24:01;;;;;;;15.10;11.10;;;;;;;;;;5007862;28;20311;-78
2022/03/02 06:26:28;;;;;;;16.87;11.20;;;;;;;;;;5007000;28;20300;-77
2022/03/02 06:28:55;;;;;;;17.67;11.60;;;;;;;;;;5009453;28;20227;-78
2022/03/02 06:31:22;;;;;;;15.83;11.23;;;;;;;;;;5001091;28;20230;-76
2022/03/02 06:33:50;;;;;;;19.13;11.00;;;;;;;;;;5006840;28;20235;-76
2022/03/02 06:36:18;;;;;;;17.70;11.47;;;;;;;;;;5005574;28;20744;-78
2022/03/02 06:38:45;;;;;;;16.63;11.63;;;;;;;;;;5007387;28;20240;-78
2022/03/02 06:41:22;;;;;;;15.20;11.50;;;;;;;;;;5011496;28;20675;-80
2022/03/02 06:43:53;;;;;;;16.77;10.90;;;;;;;;;;5008318;28;20239;-91
2022/03/02 06:46:23;;;;;;;15.27;10.43;;;;;;;;;;5001320;28;20213;-76
2022/03/02 06:48:52;;;;;;;16.97;11.77;;;;;;;;;;5006959;28;20657;-75
2022/03/02 06:51:22;;;;;;;17.57;11.17;;;;;;;;;;4998790;28;20213;-75
2022/03/02 06:53:51;;;;;;;16.90;12.00;;;;;;;;;;5007132;28;20204;-75
2022/03/02 06:56:20;;;;;;;16.03;11.43;;;;;;;;;;5004339;28;20293;-75
2022/03/02 06:58:51;;;;;;;17.73;11.70;;;;;;;;;;5006837;28;20268;-76
2022/03/02 07:01:25;;;;;;;15.83;10.97;;;;;;;;;;5013396;28;20221;-75
2022/03/02 07:03:54;;;;;;;16.87;11.63;;;;;;;;;;5012911;28;20314;-75
2022/03/02 07:06:22;;;;;;;15.87;11.40;;;;;;;;;;5011268;28;20291;-76
2022/03/02 07:08:49;;;;;;;17.53;11.30;;;;;;;;;;5006560;28;20583;-75
2022/03/02 07:11:17;;;;;;;15.77;10.97;;;;;;;;;;5006615;28;20205;-76
2022/03/02 07:13:45;;;;;;;18.17;11.70;;;;;;;;;;4997027;28;20208;-75
2022/03/02 07:16:13;;;;;;;17.83;11.13;;;;;;;;;;5008184;28;20299;-76
2022/03/02 07:18:40;;;;;;;16.47;10.90;;;;;;;;;;5005305;28;20343;-76
2022/03/02 07:21:09;;;;;;;16.10;11.13;;;;;;;;;;5003386;28;20288;-76
2022/03/02 07:23:39;;;;;;;15.87;11.27;;;;;;;;;;4998299;28;20280;-76
2022/03/02 07:26:07;;;;;;;17.83;12.07;;;;;;;;;;4995565;28;20320;-76
2022/03/02 07:28:38;;;;;;;16.03;11.20;;;;;;;;;;5003160;28;20237;-75
2022/03/02 07:31:08;;;;;;;16.23;11.30;;;;;;;;;;5012382;28;20561;-75
2022/03/02 07:33:38;;;;;;;18.77;11.70;;;;;;;;;;5010255;28;20318;-76
2022/03/02 07:36:06;;;;;;;17.17;11.63;;;;;;;;;;5010796;28;20638;-75
2022/03/02 07:38:33;;;;;;;19.23;11.07;;;;;;;;;;5004572;28;20313;-76
2022/03/02 07:41:00;;;;;;;17.57;11.27;;;;;;;;;;5003984;28;20283;-75
2022/03/02 07:43:29;;;;;;;15.93;11.20;;;;;;;;;;5007262;28;20219;-75
2022/03/02 07:45:56;;;;;;;15.83;11.23;;;;;;;;;;5002705;28;20701;-75
2022/03/02 07:48:25;;;;;;;15.40;11.17;;;;;;;;;;5002539;28;20300;-76
2022/03/02 07:50:52;;;;;;;15.87;11.10;;;;;;;;;;5010345;28;20250;-76
2022/03/02 07:53:23;;;;;;;15.47;11.30;;;;;;;;;;5010679;28;20245;-75
2022/03/02 07:55:53;;;;;;;16.63;11.80;;;;;;;;;;4997026;28;20212;-75
2022/03/02 07:58:21;;;;;;;20.73;11.83;;;;;;;;;;5009725;28;20217;-75
2022/03/02 08:00:49;;;;;;;16.63;11.57;;;;;;;;;;5011663;28;20639;-75
2022/03/02 08:03:17;;;;;;;18.67;11.67;;;;;;;;;;4996585;28;20304;-76
2022/03/02 08:05:46;;;;;;;17.90;11.90;;;;;;;;;;4994207;28;20230;-75
2022/03/02 08:08:14;;;;;;;16.90;11.37;;;;;;;;;;5002437;28;20244;-75
2022/03/02 08:10:42;;;;;;;15.70;10.87;;;;;;;;;;4995769;28;20237;-75
2022/03/02 08:13:10;;;;;;;15.50;11.77;;;;;;;;;;5006089;28;20685;-75
2022/03/02 08:15:37;;;;;;;16.10;10.87;;;;;;;;;;5002873;28;20289;-76
2022/03/02 08:18:05;;;;;;;18.13;11.30;;;;;;;;;;5000902;28;20228;-75
2022/03/02 08:20:33;;;;;;;15.97;10.87;;;;;;;;;;4993263;28;20646;-76
2022/03/02 08:23:02;;;;;;;15.13;10.83;;;;;;;;;;5007889;28;20193;-76
2022/03/02 08:25:30;;;;;;;17.70;10.90;;;;;;;;;;4995630;28;20298;-75
2022/03/02 08:27:59;;;;;;;16.30;10.73;;;;;;;;;;5000395;28;20298;-76
2022/03/02 08:30:30;;;;;;;15.43;10.60;;;;;;;;;;4997487;28;20651;-75
2022/03/02 08:32:57;;;;;;;13.73;10.20;;;;;;;;;;5009891;28;20204;-75
2022/03/02 08:35:24;;;;;;;14.47;10.77;;;;;;;;;;4997480;28;20748;-75
2022/03/02 08:37:52;;;;;;;15.90;11.03;;;;;;;;;;5002601;28;20241;-76
2022/03/02 08:40:20;;;;;;;17.27;11.57;;;;;;;;;;5004634;28;20567;-76
2022/03/02 08:42:49;;;;;;;17.37;11.03;;;;;;;;;;4995683;28;20212;-76
2022/03/02 08:45:18;;;;;;;15.67;10.53;;;;;;;;;;5008074;28;20216;-75
2022/03/02 08:47:46;;;;;;;16.50;10.83;;;;;;;;;;5007895;28;20613;-75
2022/03/02 08:50:13;;;;;;;16.30;11.10;;;;;;;;;;5000830;28;20532;-75
2022/03/02 08:52:40;;;;;;;14.03;10.50;;;;;;;;;;5002546;28;20279;-75
2022/03/02 08:55:10;;;;;;;17.50;10.80;;;;;;;;;;5003801;28;20225;-75
2022/03/02 08:57:41;;;;;;;16.37;10.40;;;;;;;;;;5002004;28;20623;-75
2022/03/02 09:00:09;;;;;;;15.07;10.33;;;;;;;;;;5005833;28;20324;-75
2022/03/02 09:02:37;;;;;;;14.00;11.00;;;;;;;;;;5010970;28;20197;-75
2022/03/02 09:05:05;;;;;;;16.47;10.63;;;;;;;;;;5010691;28;20271;-76
2022/03/02 09:07:32;;;;;;;15.23;10.43;;;;;;;;;;5000435;28;20284;-75
2022/03/02 09:10:00;;;;;;;14.97;10.00;;;;;;;;;;4998650;28;20201;-76
2022/03/02 09:12:27;;;;;;;13.97;10.67;;;;;;;;;;5014476;28;20240;-75
2022/03/02 09:14:57;;;;;;;14.27;10.83;;;;;;;;;;5010313;28;20272;-76
2022/03/02 09:17:25;;;;;;;13.67;10.30;;;;;;;;;;5007724;28;20248;-77
2022/03/02 09:19:52;;;;;;;15.27;10.93;;;;;;;;;;5007110;28;20201;-76
2022/03/02 09:22:20;;;;;;;16.03;10.87;;;;;;;;;;5006363;28;20251;-75
2022/03/02 09:24:47;;;;;;;15.83;10.87;;;;;;;;;;5003669;28;20253;-76
2022/03/02 09:27:15;;;;;;;15.07;10.23;;;;;;;;;;5003362;28;20239;-75
2022/03/02 09:29:45;;;;;;;15.20;10.93;;;;;;;;;;5003539;28;20241;-75
2022/03/02 09:32:14;;;;;;;15.73;10.53;;;;;;;;;;5003200;28;20279;-75
2022/03/02 09:34:45;;;;;;;14.83;10.17;;;;;;;;;;5002339;28;20229;-76
2022/03/02 09:37:15;;;;;;;14.93;10.93;;;;;;;;;;5001087;28;20197;-76
2022/03/02 09:39:42;;;;;;;15.47;10.47;;;;;;;;;;5012301;28;20243;-76
2022/03/02 09:42:11;;;;;;;14.90;10.50;;;;;;;;;;4999992;28;20236;-75
2022/03/02 09:44:42;;;;;;;16.27;11.10;;;;;;;;;;5005479;28;20264;-75
2022/03/02 09:47:10;;;;;;;16.30;11.17;;;;;;;;;;5002381;28;20289;-75
2022/03/02 09:49:39;;;;;;;16.83;10.67;;;;;;;;;;5002679;28;20642;-76
2022/03/02 09:52:07;;;;;;;16.50;10.57;;;;;;;;;;5003593;28;20221;-75
2022/03/02 09:54:37;;;;;;;14.27;10.60;;;;;;;;;;5006894;28;20693;-76
2022/03/02 09:57:04;;;;;;;15.63;10.97;;;;;;;;;;5005624;28;20220;-76
2022/03/02 09:59:35;;;;;;;15.50;10.70;;;;;;;;;;5009589;28;20241;-76
2022/03/02 10:02:03;;;;;;;16.77;11.17;;;;;;;;;;4999810;28;20233;-76
2022/03/02 10:04:30;;;;;;;15.30;10.80;;;;;;;;;;5012439;28;20332;-75
2022/03/02 10:07:26;;;;;;;14.80;10.63;;;;;;;;;;5007353;28;20233;-75
2022/03/02 10:09:51;;;;;;;17.43;11.03;;;;;;;;;;5003753;28;20212;-76
2022/03/02 10:12:20;;;;;;;14.07;10.40;;;;;;;;;;5007982;28;20237;-76
2022/03/02 10:14:48;;;;;;;16.03;10.40;;;;;;;;;;5007345;28;20277;-76
2022/03/02 10:17:17;;;;;;;14.37;10.40;;;;;;;;;;5002448;28;20202;-76
2022/03/02 10:19:46;;;;;;;14.13;9.97;;;;;;;;;;4994936;28;20773;-76
2022/03/02 10:22:24;;;;;;;15.97;10.47;;;;;;;;;;5008964;28;20228;-76
2022/03/02 10:25:00;;;;;;;15.03;10.53;;;;;;;;;;5005402;28;20261;-77
2022/03/02 10:27:34;;;;;;;14.30;11.47;;;;;;;;;;5008564;28;20629;-76
2022/03/02 10:30:05;;;;;;;15.00;10.70;;;;;;;;;;5001349;28;20292;-74
2022/03/02 10:32:35;;;;;;;13.67;10.03;;;;;;;;;;5004881;28;20244;-77
2022/03/02 10:35:04;;;;;;;16.80;11.10;;;;;;;;;;5009782;28;20581;-76
2022/03/02 10:37:34;;;;;;;15.17;10.83;;;;;;;;;;5011587;28;20209;-76
2022/03/02 10:40:09;;;;;;;17.53;11.83;;;;;;;;;;5009786;28;20255;-76
2022/03/02 10:42:37;;;;;;;17.27;11.80;;;;;;;;;;5006446;28;20235;-76
2022/03/02 10:45:06;;;;;;;15.83;11.87;;;;;;;;;;5011722;28;20810;-76
2022/03/02 10:47:34;;;;;;;15.53;11.80;;;;;;;;;;4997778;28;20682;-76
2022/03/02 10:50:03;;;;;;;14.90;10.80;;;;;;;;;;5007641;28;20204;-76
2022/03/02 10:52:30;;;;;;;16.83;12.13;;;;;;;;;;5009639;28;20236;-76
2022/03/02 10:55:05;;;;;;;16.13;11.47;;;;;;;;;;5002227;28;20391;-74
2022/03/02 10:57:33;;;;;;;14.17;10.97;;;;;;;;;;5001860;28;20233;-76
2022/03/02 11:00:03;;;;;;;16.97;11.63;;;;;;;;;;5005732;28;20324;-76
2022/03/02 11:02:30;;;;;;;14.07;10.70;;;;;;;;;;4999629;28;20297;-76
2022/03/02 11:04:59;;;;;;;15.80;10.80;;;;;;;;;;5010026;28;20315;-76
2022/03/02 11:07:26;;;;;;;15.30;11.00;;;;;;;;;;4999776;28;20292;-76
2022/03/02 11:09:53;;;;;;;16.93;11.10;;;;;;;;;;5008509;28;20198;-77
2022/03/02 11:12:22;;;;;;;15.50;10.37;;;;;;;;;;5002489;28;20224;-77
2022/03/02 11:14:56;;;;;;;14.60;9.93;;;;;;;;;;5008735;28;20228;-77
2022/03/02 11:17:24;;;;;;;14.20;10.30;;;;;;;;;;4998094;28;20204;-77
2022/03/02 11:19:53;;;;;;;12.90;10.70;;;;;;;;;;5004690;28;20202;-77
2022/03/02 11:22:22;;;;;;;15.35;10.75;;;;;;;;;;5006971;28;20213;-77
2022/03/02 11:24:49;;;;;;;14.90;10.60;;;;;;;;;;4997268;28;20226;-77
2022/03/02 11:27:32;;;;;;;14.77;10.25;;;;;;;;;;5002823;28;20253;-76
2022/03/02 11:30:10;;;;;;;15.38;10.55;;;;;;;;;;5006278;28;20307;-76
2022/03/02 11:32:38;;;;;;;14.07;10.45;;;;;;;;;;4993228;28;20284;-76
2022/03/02 11:35:08;;;;;;;12.50;10.13;;;;;;;;;;5001888;28;20263;-77
2022/03/02 11:37:36;;;;;;;15.57;10.73;;;;;;;;;;5000017;28;20212;-76
2022/03/02 11:40:05;;;;;;;13.30;10.38;;;;;;;;;;5006802;28;20618;-76
2022/03/02 11:42:35;;;;;;;14.02;10.40;;;;;;;;;;4998830;28;20592;-76
2022/03/02 11:45:02;;;;;;;16.90;12.30;;;;;;;;;;5004248;28;20309;-76
2022/03/02 11:47:34;;;;;;;14.48;10.98;;;;;;;;;;4992398;28;20205;-76
2022/03/02 11:50:01;;;;;;;13.87;10.80;;;;;;;;;;5005230;28;20197;-76
2022/03/02 11:52:29;;;;;;;16.93;11.97;;;;;;;;;;5011504;28;20228;-76
2022/03/02 11:54:58;;;;;;;13.80;11.20;;;;;;;;;;5012596;28;20239;-77
2022/03/02 11:57:26;;;;;;;14.43;10.83;;;;;;;;;;5008066;28;20244;-77
2022/03/02 12:00:07;;;;;;;18.43;11.90;;;;;;;;;;4997920;28;20237;-77
2022/03/02 12:02:40;;;;;;;15.53;12.00;;;;;;;;;;5007777;28;20209;-76
2022/03/02 12:05:08;;;;;;;17.20;12.27;;;;;;;;;;4999469;28;20311;-78
2022/03/02 12:07:39;;;;;;;15.73;11.80;;;;;;;;;;5011192;28;20284;-76
2022/03/02 12:10:16;;;;;;;14.57;12.23;;;;;;;;;;5012286;28;20236;-77
2022/03/02 12:12:43;;;;;;;16.43;12.80;;;;;;;;;;4995079;28;20642;-76
2022/03/02 12:15:12;;;;;;;19.30;13.67;;;;;;;;;;5009880;28;20200;-76
2022/03/02 12:17:39;;;;;;;17.80;13.97;;;;;;;;;;5005708;28;20197;-76
2022/03/02 12:20:09;;;;;;;17.17;14.10;;;;;;;;;;5010785;28;20287;-76
2022/03/02 12:22:37;;;;;;;24.03;13.80;;;;;;;;;;5002572;28;20293;-77
2022/03/02 12:25:05;;;;;;;18.73;12.57;;;;;;;;;;5003258;28;20260;-76
2022/03/02 12:27:32;;;;;;;16.53;12.90;;;;;;;;;;5007301;28;20280;-77
2022/03/02 12:30:00;;;;;;;15.30;12.17;;;;;;;;;;5000085;28;20700;-76
2022/03/02 12:32:30;;;;;;;16.13;11.30;;;;;;;;;;5007243;28;20228;-77
2022/03/02 12:34:59;;;;;;;16.07;11.43;;;;;;;;;;4996357;28;20197;-77
2022/03/02 12:37:27;;;;;;;12.47;10.33;;;;;;;;;;5007395;28;20295;-78
2022/03/02 12:39:54;;;;;;;16.70;10.73;;;;;;;;;;5005990;28;20289;-77
2022/03/02 12:42:22;;;;;;;12.87;10.00;;;;;;;;;;4997633;28;20583;-77
2022/03/02 12:44:50;;;;;;;15.17;10.90;;;;;;;;;;5001748;28;20303;-77
2022/03/02 12:47:18;;;;;;;13.17;10.70;;;;;;;;;;5010050;28;20540;-76
2022/03/02 12:49:49;;;;;;;16.10;11.10;;;;;;;;;;5001389;28;20205;-77
2022/03/02 12:52:17;;;;;;;15.83;10.50;;;;;;;;;;5006048;28;20208;-77
2022/03/02 12:54:45;;;;;;;15.37;9.80;;;;;;;;;;5008334;28;20284;-77
2022/03/02 12:57:14;;;;;;;14.27;10.73;;;;;;;;;;4999757;28;20201;-76
2022/03/02 12:59:42;;;;;;;14.15;10.60;;;;;;;;;;5011129;28;20327;-77
2022/03/02 13:02:10;;;;;;;17.35;11.40;;;;;;;;;;4997215;28;20201;-76
2022/03/02 13:04:41;;;;;;;15.93;10.98;;;;;;;;;;5011608;28;20727;-76
2022/03/02 13:07:14;;;;;;;13.48;10.25;;;;;;;;;;5004212;28;20194;-76
2022/03/02 13:09:46;;;;;;;15.48;10.50;;;;;;;;;;5008609;28;20220;-77
2022/03/02 13:12:30;;;;;;;13.30;10.20;;;;;;;;;;5013076;28;20251;-76
2022/03/02 13:14:57;;;;;;;15.07;10.10;;;;;;;;;;5011226;28;20259;-77
2022/03/02 13:17:24;;;;;;;13.38;9.30;;;;;;;;;;4999275;28;20292;-77
2022/03/02 13:19:54;;;;;;;11.93;8.98;;;;;;;;;;4999047;28;20197;-77
2022/03/02 13:22:27;;;;;;;13.43;9.68;;;;;;;;;;4999974;28;20702;-77
2022/03/02 13:24:56;;;;;;;11.98;9.00;;;;;;;;;;5012668;28;20784;-77
2022/03/02 13:27:24;;;;;;;13.95;9.80;;;;;;;;;;5011164;28;20224;-76
2022/03/02 13:29:52;;;;;;;14.45;9.60;;;;;;;;;;5007569;28;20333;-77
2022/03/02 13:32:20;;;;;;;11.63;9.20;;;;;;;;;;5007463;28;20459;-77
2022/03/02 13:35:07;;;;;;;15.43;9.80;;;;;;;;;;5002995;28;20740;-77
2022/03/02 13:37:53;;;;;;;14.43;9.75;;;;;;;;;;5010361;28;20240;-76
2022/03/02 13:40:40;;;;;;;14.38;10.45;;;;;;;;;;5009592;28;20288;-77
2022/03/02 13:43:22;;;;;;;14.18;9.77;;;;;;;;;;5002933;28;20281;-76
2022/03/02 13:46:08;;;;;;;10.48;7.97;;;;;;;;;;5004328;28;20226;-78
2022/03/02 13:48:36;;;;;;;10.77;7.85;;;;;;;;;;5004291;28;20206;-77
2022/03/02 13:51:04;;;;;;;15.13;9.38;;;;;;;;;;5003184;28;20201;-78
2022/03/02 13:53:32;;;;;;;12.02;9.20;;;;;;;;;;5010716;28;20573;-77
2022/03/02 13:56:05;;;;;;;14.15;10.00;;;;;;;;;;5002584;28;20276;-77
2022/03/02 13:58:34;;;;;;;12.95;9.88;;;;;;;;;;4995280;28;20225;-76
2022/03/02 14:01:18;;;;;;;14.90;10.57;;;;;;;;;;5001510;28;20233;-76
2022/03/02 14:03:46;;;;;;;14.55;10.35;;;;;;;;;;5002570;28;20201;-77
2022/03/02 14:06:15;;;;;;;13.57;9.88;;;;;;;;;;5002182;28;20249;-76
2022/03/02 14:08:52;;;;;;;13.38;10.50;;;;;;;;;;5002369;28;20197;-77
2022/03/02 14:11:38;;;;;;;14.07;10.30;;;;;;;;;;5009198;28;20236;-77
2022/03/02 14:14:06;;;;;;;14.13;10.23;;;;;;;;;;5006036;28;20208;-77
2022/03/02 14:16:34;;;;;;;14.93;11.17;;;;;;;;;;5004125;28;20284;-76
2022/03/02 14:19:03;;;;;;;15.67;10.77;;;;;;;;;;4995699;28;20202;-76
2022/03/02 14:21:30;;;;;;;15.50;10.73;;;;;;;;;;5001264;28;20240;-77
2022/03/02 14:23:57;;;;;;;13.63;10.73;;;;;;;;;;5008595;28;20289;-77
2022/03/02 14:26:24;;;;;;;15.27;10.57;;;;;;;;;;5002287;28;20277;-76